createdAt,value
2018-08-10T00:01:24.128Z,20.28
2018-08-10T00:04:01.106Z,20.34
2018-08-10T00:06:29.942Z,20.31
2018-08-10T00:08:58.389Z,20.37
2018-08-10T00:11:27.529Z,20.43
2018-08-10T00:13:57.212Z,20.48
2018-08-10T00:16:36.918Z,20.49
2018-08-10T00:19:13.402Z,20.36
2018-08-10T00:21:42.574Z,20.30
2018-08-10T00:24:11.898Z,20.36
2018-08-10T00:26:44.684Z,20.36
2018-08-10T00:29:18.361Z,20.21
2018-08-10T00:31:47.580Z,20.24
2018-08-10T00:34:20.067Z,20.27
2018-08-10T00:36:50.050Z,20.12
2018-08-10T00:39:19.396Z,20.09
2018-08-10T00:41:49.322Z,19.93
2018-08-10T00:44:18.663Z,19.91
2018-08-10T00:46:49.404Z,19.96
2018-08-10T00:49:17.634Z,19.73
2018-08-10T00:51:45.964Z,19.68
2018-08-10T00:54:15.804Z,19.60
2018-08-10T00:56:44.251Z,19.53
2018-08-10T00:59:15.106Z,19.53
2018-08-10T01:01:44.973Z,19.35
2018-08-10T01:04:15.531Z,19.40
2018-08-10T01:06:45.903Z,19.32
2018-08-10T01:09:15.806Z,19.12
2018-08-10T01:11:46.905Z,19.13
2018-08-10T01:14:17.015Z,18.96
2018-08-10T01:16:45.122Z,18.95
2018-08-10T01:19:13.311Z,18.92
2018-08-10T01:21:41.348Z,18.96
2018-08-10T01:24:09.491Z,19.03
2018-08-10T01:26:37.568Z,18.93
2018-08-10T01:29:05.768Z,18.89
2018-08-10T01:31:33.891Z,18.69
2018-08-10T01:34:01.966Z,18.66
2018-08-10T01:36:30.059Z,18.48
2018-08-10T01:38:58.133Z,18.42
2018-08-10T01:41:26.222Z,18.49
2018-08-10T01:43:54.379Z,18.44
2018-08-10T01:46:29.002Z,18.46
2018-08-10T01:48:57.138Z,18.36
2018-08-10T01:51:25.295Z,18.21
2018-08-10T01:53:53.399Z,18.14
2018-08-10T01:56:21.519Z,18.03
2018-08-10T01:58:49.610Z,17.97
2018-08-10T02:01:17.788Z,18.14
2018-08-10T02:03:45.896Z,18.02
2018-08-10T02:06:13.993Z,17.91
2018-08-10T02:08:42.289Z,17.75
2018-08-10T02:11:10.373Z,17.91
2018-08-10T02:13:38.488Z,18.02
2018-08-10T02:16:06.585Z,17.96
2018-08-10T02:18:34.704Z,17.79
2018-08-10T02:21:02.802Z,17.87
2018-08-10T02:23:30.940Z,17.74
2018-08-10T02:25:59.067Z,17.56
2018-08-10T02:28:27.142Z,17.54
2018-08-10T02:30:55.802Z,17.62
2018-08-10T02:33:23.890Z,17.66
2018-08-10T02:35:51.985Z,17.48
2018-08-10T02:38:20.048Z,17.53
2018-08-10T02:40:48.151Z,17.50
2018-08-10T02:43:16.221Z,17.47
2018-08-10T02:45:44.347Z,17.38
2018-08-10T02:48:12.446Z,17.47
2018-08-10T02:50:40.530Z,17.52
2018-08-10T02:53:08.660Z,17.47
2018-08-10T02:55:36.752Z,17.36
2018-08-10T02:58:04.879Z,17.31
2018-08-10T03:00:32.987Z,17.23
2018-08-10T03:03:01.138Z,17.24
2018-08-10T03:05:29.229Z,17.24
2018-08-10T03:07:57.342Z,17.11
2018-08-10T03:10:25.456Z,17.21
2018-08-10T03:12:53.585Z,17.09
2018-08-10T03:15:21.627Z,17.08
2018-08-10T03:17:49.700Z,17.09
2018-08-10T03:20:17.763Z,16.98
2018-08-10T03:22:45.864Z,16.93
2018-08-10T03:25:14.767Z,16.88
2018-08-10T03:27:42.867Z,16.94
2018-08-10T03:30:11.922Z,16.75
2018-08-10T03:32:40.067Z,16.71
2018-08-10T03:35:08.230Z,16.64
2018-08-10T03:37:36.751Z,16.63
2018-08-10T03:40:06.202Z,16.63
2018-08-10T03:42:34.313Z,16.55
2018-08-10T03:45:02.371Z,16.45
2018-08-10T03:47:30.467Z,16.43
2018-08-10T03:49:58.618Z,16.40
2018-08-10T03:52:26.680Z,16.52
2018-08-10T03:54:54.791Z,16.46
2018-08-10T03:57:22.846Z,16.28
2018-08-10T03:59:50.906Z,16.25
2018-08-10T04:02:18.967Z,16.32
2018-08-10T04:04:47.014Z,16.26
2018-08-10T04:07:15.077Z,16.16
2018-08-10T04:09:43.140Z,16.25
2018-08-10T04:12:11.223Z,16.13
2018-08-10T04:14:39.286Z,16.05
2018-08-10T04:17:11.590Z,16.08
2018-08-10T04:19:39.659Z,16.05
2018-08-10T04:22:07.999Z,16.11
2018-08-10T04:24:36.068Z,16.04
2018-08-10T04:27:04.145Z,16.06
2018-08-10T04:29:32.250Z,15.97
2018-08-10T04:32:00.264Z,16.04
2018-08-10T04:34:28.324Z,15.99
2018-08-10T04:36:56.420Z,16.04
2018-08-10T04:39:24.584Z,15.97
2018-08-10T04:41:52.679Z,16.04
2018-08-10T04:44:20.731Z,15.99
2018-08-10T04:46:48.783Z,15.96
2018-08-10T04:49:16.854Z,15.95
2018-08-10T04:51:44.952Z,15.94
2018-08-10T04:54:13.009Z,15.93
2018-08-10T04:56:41.104Z,15.89
2018-08-10T04:59:09.144Z,15.86
2018-08-10T05:01:37.255Z,15.76
2018-08-10T05:04:05.326Z,15.79
2018-08-10T05:06:33.439Z,15.81
2018-08-10T05:09:01.497Z,15.81
2018-08-10T05:11:29.579Z,15.88
2018-08-10T05:13:57.651Z,15.96
2018-08-10T05:16:25.750Z,16.00
2018-08-10T05:18:53.938Z,16.16
2018-08-10T05:21:22.022Z,16.19
2018-08-10T05:23:50.095Z,16.22
2018-08-10T05:26:18.212Z,16.33
2018-08-10T05:28:46.254Z,16.33
2018-08-10T05:31:14.356Z,16.38
2018-08-10T05:33:42.443Z,16.48
2018-08-10T05:36:10.509Z,16.40
2018-08-10T05:38:38.612Z,16.46
2018-08-10T05:41:06.678Z,16.55
2018-08-10T05:43:34.764Z,16.66
2018-08-10T05:46:02.952Z,16.73
2018-08-10T05:48:35.249Z,16.80
2018-08-10T05:51:03.435Z,16.87
2018-08-10T05:53:31.487Z,16.95
2018-08-10T05:55:59.543Z,17.06
2018-08-10T05:58:27.615Z,17.14
2018-08-10T06:00:55.701Z,17.30
2018-08-10T06:03:24.735Z,17.43
2018-08-10T06:05:52.695Z,17.45
2018-08-10T06:08:20.796Z,17.55
2018-08-10T06:10:48.850Z,17.70
2018-08-10T06:13:17.039Z,17.83
2018-08-10T06:15:45.119Z,17.86
2018-08-10T06:18:13.181Z,17.94
2018-08-10T06:20:41.230Z,18.23
2018-08-10T06:23:09.311Z,18.25
2018-08-10T06:25:37.407Z,18.04
2018-08-10T06:28:05.531Z,18.06
2018-08-10T06:30:33.587Z,18.35
2018-08-10T06:33:01.657Z,18.27
2018-08-10T06:35:29.724Z,18.44
2018-08-10T06:37:57.834Z,18.32
2018-08-10T06:40:25.876Z,18.24
2018-08-10T06:42:53.944Z,18.37
2018-08-10T06:45:22.014Z,18.61
2018-08-10T06:47:50.060Z,18.77
2018-08-10T06:50:18.122Z,18.84
2018-08-10T06:52:46.189Z,18.56
2018-08-10T06:55:14.246Z,18.71
2018-08-10T06:57:42.313Z,18.84
2018-08-10T07:00:10.391Z,18.97
2018-08-10T07:02:38.446Z,19.03
2018-08-10T07:05:06.858Z,19.14
2018-08-10T07:07:34.992Z,19.23
2018-08-10T07:10:03.008Z,19.14
2018-08-10T07:12:31.083Z,19.13
2018-08-10T07:14:59.214Z,19.11
2018-08-10T07:17:27.301Z,19.21
2018-08-10T07:19:55.342Z,19.38
2018-08-10T07:22:23.434Z,19.31
2018-08-10T07:24:51.487Z,19.30
2018-08-10T07:27:19.576Z,19.39
2018-08-10T07:29:47.602Z,19.41
2018-08-10T07:32:15.663Z,19.60
2018-08-10T07:34:43.730Z,19.38
2018-08-10T07:37:11.803Z,19.74
2018-08-10T07:39:39.854Z,19.65
2018-08-10T07:42:07.912Z,19.54
2018-08-10T07:44:35.958Z,19.62
2018-08-10T07:47:04.011Z,19.56
2018-08-10T07:49:32.071Z,19.55
2018-08-10T07:52:00.173Z,19.37
2018-08-10T07:54:28.257Z,19.44
2018-08-10T07:56:56.316Z,19.56
2018-08-10T07:59:24.414Z,19.71
2018-08-10T08:01:52.491Z,19.84
2018-08-10T08:04:20.559Z,19.58
2018-08-10T08:06:48.629Z,19.71
2018-08-10T08:09:16.735Z,19.72
2018-08-10T08:11:44.787Z,19.84
2018-08-10T08:14:12.852Z,19.86
2018-08-10T08:16:40.920Z,20.02
2018-08-10T08:19:08.992Z,19.79
2018-08-10T08:21:37.064Z,19.97
2018-08-10T08:24:05.231Z,20.16
2018-08-10T08:26:39.880Z,20.32
2018-08-10T08:29:07.952Z,20.15
2018-08-10T08:31:36.031Z,20.08
2018-08-10T08:34:06.867Z,20.18
2018-08-10T08:36:35.016Z,20.13
2018-08-10T08:39:27.189Z,20.49
2018-08-10T08:41:55.261Z,20.67
2018-08-10T08:44:35.979Z,20.66
2018-08-10T08:47:05.271Z,20.58
2018-08-10T08:49:33.923Z,20.75
2018-08-10T08:52:02.105Z,20.76
2018-08-10T08:55:34.538Z,20.80
2018-08-10T08:58:02.651Z,20.80
2018-08-10T09:00:30.730Z,21.08
2018-08-10T09:02:58.870Z,21.23
2018-08-10T09:05:26.923Z,21.42
2018-08-10T09:07:55.031Z,21.22
2018-08-10T09:10:23.092Z,21.05
2018-08-10T09:12:51.148Z,21.04
2018-08-10T09:15:20.375Z,21.21
2018-08-10T09:17:49.458Z,20.92
2018-08-10T09:20:17.619Z,20.92
2018-08-10T09:22:45.615Z,21.05
2018-08-10T09:25:15.312Z,21.29
2018-08-10T09:27:43.413Z,21.20
2018-08-10T09:30:13.212Z,21.27
2018-08-10T09:32:41.661Z,21.56
2018-08-10T09:35:10.581Z,21.29
2018-08-10T09:37:38.655Z,21.21
2018-08-10T09:40:21.709Z,21.02
2018-08-10T09:42:49.766Z,21.04
2018-08-10T09:45:18.315Z,21.13
2018-08-10T09:47:47.320Z,21.24
2018-08-10T09:50:15.835Z,21.48
2018-08-10T09:52:55.795Z,21.84
2018-08-10T09:55:36.913Z,21.95
2018-08-10T09:58:09.237Z,21.92
2018-08-10T10:00:42.749Z,21.95
2018-08-10T10:03:16.636Z,22.12
2018-08-10T10:05:45.128Z,22.43
2018-08-10T10:08:13.548Z,22.43
2018-08-10T10:10:41.649Z,22.39
2018-08-10T10:13:09.699Z,22.21
2018-08-10T10:15:37.784Z,22.16
2018-08-10T10:18:08.422Z,22.04
2018-08-10T10:20:36.535Z,22.13
2018-08-10T10:23:04.604Z,22.49
2018-08-10T10:25:32.678Z,22.67
2018-08-10T10:28:00.793Z,23.04
2018-08-10T10:30:28.919Z,22.99
2018-08-10T10:32:56.994Z,22.70
2018-08-10T10:35:25.149Z,22.78
2018-08-10T10:37:53.246Z,22.99
2018-08-10T10:40:21.286Z,22.92
2018-08-10T10:42:49.493Z,22.59
2018-08-10T10:45:17.608Z,22.73
2018-08-10T10:47:46.879Z,22.74
2018-08-10T10:50:15.355Z,23.15
2018-08-10T10:52:43.495Z,23.05
2018-08-10T10:55:11.867Z,23.31
2018-08-10T10:57:40.836Z,23.45
2018-08-10T11:00:12.107Z,23.46
2018-08-10T11:02:40.436Z,23.60
2018-08-10T11:05:08.776Z,23.65
2018-08-10T11:07:37.387Z,23.81
2018-08-10T11:10:06.851Z,23.82
2018-08-10T11:12:34.907Z,23.66
2018-08-10T11:15:03.006Z,23.73
2018-08-10T11:17:31.184Z,23.52
2018-08-10T11:19:59.390Z,23.42
2018-08-10T11:22:27.590Z,23.29
2018-08-10T11:24:55.832Z,23.59
2018-08-10T11:27:24.035Z,23.85
2018-08-10T11:29:52.308Z,24.07
2018-08-10T11:32:20.503Z,24.15
2018-08-10T11:34:48.697Z,24.22
2018-08-10T11:37:16.931Z,24.47
2018-08-10T11:39:45.458Z,24.24
2018-08-10T11:42:15.635Z,24.28
2018-08-10T11:44:44.836Z,24.28
2018-08-10T11:47:13.088Z,24.33
2018-08-10T11:49:41.347Z,24.45
2018-08-10T11:52:09.620Z,24.57
2018-08-10T11:54:37.845Z,24.54
2018-08-10T11:57:06.118Z,24.46
2018-08-10T11:59:34.379Z,24.53
2018-08-10T12:02:02.708Z,24.72
2018-08-10T12:04:30.880Z,24.42
2018-08-10T12:06:59.125Z,24.22
2018-08-10T12:09:27.399Z,24.64
2018-08-10T12:11:55.683Z,24.59
2018-08-10T12:14:23.957Z,24.46
2018-08-10T12:16:52.192Z,24.31
2018-08-10T12:19:20.436Z,24.18
2018-08-10T12:21:48.671Z,24.29
2018-08-10T12:24:16.908Z,24.48
2018-08-10T12:26:45.137Z,24.57
2018-08-10T12:29:13.380Z,24.79
2018-08-10T12:31:41.627Z,24.82
2018-08-10T12:34:09.833Z,24.86
2018-08-10T12:36:38.075Z,25.01
2018-08-10T12:39:09.929Z,24.49
2018-08-10T12:41:38.169Z,24.50
2018-08-10T12:44:06.439Z,24.71
2018-08-10T12:46:34.645Z,24.54
2018-08-10T12:49:02.735Z,24.67
2018-08-10T12:51:30.941Z,24.87
2018-08-10T12:53:59.308Z,24.97
2018-08-10T12:56:27.450Z,25.32
2018-08-10T12:58:56.106Z,25.49
2018-08-10T13:01:24.297Z,25.57
2018-08-10T13:03:52.496Z,25.46
2018-08-10T13:06:20.705Z,25.33
2018-08-10T13:08:48.913Z,25.38
2018-08-10T13:11:17.150Z,25.16
2018-08-10T13:13:45.377Z,25.16
2018-08-10T13:16:13.595Z,25.20
2018-08-10T13:18:41.827Z,25.19
2018-08-10T13:21:10.050Z,25.10
2018-08-10T13:23:38.259Z,25.06
2018-08-10T13:26:06.965Z,24.92
2018-08-10T13:28:35.178Z,24.82
2018-08-10T13:31:03.531Z,24.82
2018-08-10T13:33:31.757Z,24.84
2018-08-10T13:36:00.015Z,24.95
2018-08-10T13:38:28.239Z,24.52
2018-08-10T13:40:56.745Z,24.32
2018-08-10T13:43:24.923Z,24.33
2018-08-10T13:45:53.216Z,24.09
2018-08-10T13:48:21.447Z,24.09
2018-08-10T13:50:49.683Z,24.35
2018-08-10T13:53:17.972Z,24.45
2018-08-10T13:55:46.144Z,24.42
2018-08-10T13:58:14.344Z,24.43
2018-08-10T14:00:42.589Z,24.45
2018-08-10T14:03:10.809Z,24.47
2018-08-10T14:05:39.051Z,24.60
2018-08-10T14:08:07.342Z,24.67
2018-08-10T14:10:35.567Z,24.81
2018-08-10T14:13:03.812Z,25.27
2018-08-10T14:15:32.047Z,25.61
2018-08-10T14:18:00.223Z,25.80
2018-08-10T14:20:28.412Z,25.66
2018-08-10T14:22:56.838Z,25.51
2018-08-10T14:25:25.061Z,25.86
2018-08-10T14:27:53.344Z,26.00
2018-08-10T14:30:21.480Z,25.71
2018-08-10T14:32:49.696Z,25.42
2018-08-10T14:35:17.864Z,25.41
2018-08-10T14:37:46.066Z,25.57
2018-08-10T14:40:14.323Z,25.54
2018-08-10T14:42:42.955Z,25.66
2018-08-10T14:45:13.389Z,25.90
2018-08-10T14:47:41.529Z,26.06
2018-08-10T14:50:11.421Z,26.06
2018-08-10T14:52:39.604Z,25.96
2018-08-10T14:55:09.596Z,25.97
2018-08-10T14:57:37.856Z,25.81
2018-08-10T15:00:09.335Z,25.69
2018-08-10T15:02:37.582Z,25.81
2018-08-10T15:05:05.951Z,25.93
2018-08-10T15:07:35.786Z,26.11
2018-08-10T15:10:04.712Z,26.10
2018-08-10T15:12:33.028Z,26.22
2018-08-10T15:15:00.891Z,25.99
2018-08-10T15:17:29.253Z,25.92
2018-08-10T15:19:57.365Z,25.78
2018-08-10T15:22:25.445Z,25.34
2018-08-10T15:24:53.563Z,25.06
2018-08-10T15:27:21.595Z,25.27
2018-08-10T15:29:49.645Z,25.57
2018-08-10T15:32:17.811Z,25.76
2018-08-10T15:34:45.911Z,25.70
2018-08-10T15:37:13.990Z,25.74
2018-08-10T15:39:42.061Z,25.61
2018-08-10T15:42:10.139Z,25.51
2018-08-10T15:44:38.260Z,25.72
2018-08-10T15:47:06.338Z,25.90
2018-08-10T15:49:34.425Z,26.14
2018-08-10T15:52:02.487Z,26.25
2018-08-10T15:54:30.586Z,26.01
2018-08-10T15:56:58.671Z,26.02
2018-08-10T15:59:26.744Z,25.82
2018-08-10T16:01:54.827Z,25.80
2018-08-10T16:04:22.903Z,25.96
2018-08-10T16:06:51.004Z,25.69
2018-08-10T16:09:19.067Z,25.21
2018-08-10T16:11:47.147Z,25.13
2018-08-10T16:14:15.272Z,25.14
2018-08-10T16:16:43.378Z,25.20
2018-08-10T16:19:11.493Z,25.43
2018-08-10T16:21:39.608Z,25.62
2018-08-10T16:24:07.861Z,25.28
2018-08-10T16:26:35.936Z,25.34
2018-08-10T16:29:05.813Z,25.49
2018-08-10T16:31:44.674Z,25.38
2018-08-10T16:34:13.436Z,25.35
2018-08-10T16:36:41.815Z,25.68
2018-08-10T16:39:11.747Z,25.66
2018-08-10T16:41:44.240Z,25.71
2018-08-10T16:44:16.969Z,25.85
2018-08-10T16:46:46.933Z,25.73
2018-08-10T16:49:18.531Z,25.61
2018-08-10T16:51:46.671Z,25.38
2018-08-10T16:54:15.807Z,25.50
2018-08-10T16:56:44.944Z,25.47
2018-08-10T16:59:13.274Z,25.40
2018-08-10T17:01:42.266Z,25.64
2018-08-10T17:04:11.109Z,25.22
2018-08-10T17:06:42.588Z,25.21
2018-08-10T17:09:12.720Z,24.99
2018-08-10T17:11:40.943Z,24.75
2018-08-10T17:14:09.560Z,24.64
2018-08-10T17:16:38.115Z,24.61
2018-08-10T17:19:06.682Z,24.72
2018-08-10T17:21:34.844Z,24.52
2018-08-10T17:24:07.197Z,24.52
2018-08-10T17:26:41.931Z,24.49
2018-08-10T17:29:10.164Z,24.54
2018-08-10T17:31:38.350Z,24.77
2018-08-10T17:34:06.548Z,25.03
2018-08-10T17:36:36.559Z,24.85
2018-08-10T17:39:09.521Z,24.74
2018-08-10T17:41:37.626Z,24.63
2018-08-10T17:44:05.779Z,24.62
2018-08-10T17:46:33.940Z,24.60
2018-08-10T17:49:02.038Z,24.47
2018-08-10T17:51:30.119Z,24.45
2018-08-10T17:53:58.200Z,24.34
2018-08-10T17:56:26.269Z,24.16
2018-08-10T17:58:54.459Z,23.93
2018-08-10T18:01:22.499Z,24.02
2018-08-10T18:03:50.590Z,23.94
2018-08-10T18:06:19.220Z,23.68
2018-08-10T18:08:47.496Z,23.65
2018-08-10T18:11:19.515Z,23.64
2018-08-10T18:13:50.168Z,23.60
2018-08-10T18:16:22.755Z,23.38
2018-08-10T18:19:00.090Z,23.30
2018-08-10T18:21:31.072Z,23.16
2018-08-10T18:24:00.108Z,23.14
2018-08-10T18:26:31.541Z,23.09
2018-08-10T18:29:07.385Z,23.05
2018-08-10T18:31:42.092Z,22.92
2018-08-10T18:34:17.999Z,22.99
2018-08-10T18:36:48.323Z,22.89
2018-08-10T18:39:23.408Z,22.92
2018-08-10T18:41:57.917Z,22.90
2018-08-10T18:44:30.284Z,22.82
2018-08-10T18:52:03.884Z,22.75
2018-08-10T18:54:34.568Z,22.51
2018-08-10T18:57:16.155Z,22.43
2018-08-10T18:59:49.733Z,22.37
2018-08-10T20:20:36.635Z,20.28
2018-08-10T20:23:15.223Z,20.23
2018-08-10T20:25:47.509Z,20.10
2018-08-10T20:28:19.679Z,20.03
2018-08-10T20:30:52.542Z,20.00
2018-08-10T20:33:26.710Z,19.91
2018-08-10T20:36:03.746Z,19.88
2018-08-10T20:38:43.440Z,19.77
2018-08-10T20:41:22.242Z,19.67
2018-08-10T20:44:01.801Z,19.51
2018-08-10T20:46:46.748Z,19.49
2018-08-10T20:49:32.862Z,19.36
2018-08-10T20:52:12.014Z,19.34
2018-08-10T20:54:41.686Z,19.24
2018-08-10T20:57:15.614Z,19.06
2018-08-10T21:00:02.385Z,19.10
2018-08-10T21:02:35.717Z,19.01
2018-08-10T21:05:06.800Z,18.97
2018-08-10T21:07:36.569Z,19.10
2018-08-10T21:10:13.690Z,19.03
2018-08-10T21:12:45.587Z,18.76
2018-08-10T21:15:15.086Z,18.71
2018-08-10T21:17:46.367Z,18.81
2018-08-10T21:20:16.570Z,18.98
2018-08-10T21:22:46.266Z,18.85
2018-08-10T21:25:19.397Z,18.68
2018-08-10T21:27:49.374Z,18.60
2018-08-10T21:30:19.529Z,18.46
2018-08-10T21:38:33.499Z,18.46
2018-08-10T21:41:05.879Z,18.36
2018-08-10T21:43:40.194Z,18.30
2018-08-10T21:46:08.979Z,18.33
2018-08-10T21:48:41.575Z,18.28
2018-08-10T21:51:11.674Z,18.05
2018-08-10T21:59:21.598Z,18.03
2018-08-10T22:01:51.793Z,17.97
2018-08-10T22:04:29.399Z,17.87
2018-08-10T22:07:00.416Z,17.71
2018-08-10T22:09:29.308Z,17.81
2018-08-10T22:12:05.418Z,17.65
2018-08-10T22:14:39.084Z,17.47
2018-08-10T22:17:14.265Z,17.56
2018-08-10T22:19:44.296Z,17.36
2018-08-10T22:22:15.007Z,17.40
2018-08-10T22:24:44.264Z,17.43
2018-08-10T22:27:15.318Z,17.41
2018-08-10T22:29:43.913Z,17.54
2018-08-10T22:32:17.334Z,17.58
2018-08-10T22:34:45.602Z,17.30
2018-08-10T22:37:15.780Z,17.30
2018-08-10T22:39:43.903Z,17.42
2018-08-10T22:42:11.984Z,17.37
2018-08-10T22:44:46.511Z,17.37
2018-08-10T22:47:14.641Z,17.33
2018-08-10T22:49:42.702Z,17.41
2018-08-10T22:52:10.758Z,17.30
2018-08-10T22:54:39.075Z,17.20
2018-08-10T22:57:07.163Z,17.11
2018-08-10T22:59:35.232Z,17.01
2018-08-10T23:02:03.308Z,17.00
2018-08-10T23:04:31.360Z,17.02
2018-08-10T23:06:59.793Z,16.97
2018-08-10T23:09:27.892Z,16.94
2018-08-10T23:11:55.958Z,16.97
2018-08-10T23:14:24.033Z,17.04
2018-08-10T23:16:52.122Z,16.99
2018-08-10T23:19:20.179Z,16.85
2018-08-10T23:21:48.242Z,16.79
2018-08-10T23:24:16.311Z,16.74
2018-08-10T23:26:44.385Z,16.71
2018-08-10T23:29:12.465Z,16.70
2018-08-10T23:31:40.530Z,16.68
2018-08-10T23:34:08.607Z,16.53
2018-08-10T23:36:36.715Z,16.50
2018-08-10T23:39:07.655Z,16.39
2018-08-10T23:41:35.743Z,16.41
2018-08-10T23:44:03.830Z,16.37
2018-08-10T23:46:31.920Z,16.32
2018-08-10T23:49:00.029Z,16.22
2018-08-10T23:51:28.139Z,16.19
2018-08-10T23:53:56.211Z,16.21
2018-08-10T23:56:24.286Z,16.25
2018-08-10T23:58:52.577Z,16.26
